createdAt,value
2018-06-08T00:01:44.576Z,100507.48
2018-06-08T00:04:12.613Z,100508.84
2018-06-08T00:06:40.843Z,100508.31
2018-06-08T00:09:09.219Z,100511.34
2018-06-08T00:11:37.242Z,100513.86
2018-06-08T00:14:05.270Z,100520.58
2018-06-08T00:16:33.320Z,100517.90
2018-06-08T00:19:01.341Z,100512.35
2018-06-08T00:21:29.376Z,100505.63
2018-06-08T00:23:57.421Z,100510.84
2018-06-08T00:26:25.467Z,100508.98
2018-06-08T00:28:53.455Z,100512.33
2018-06-08T00:31:21.464Z,100508.98
2018-06-08T00:33:49.464Z,100508.64
2018-06-08T00:36:17.469Z,100508.81
2018-06-08T00:38:46.537Z,100503.09
2018-06-08T00:41:14.581Z,100506.13
2018-06-08T00:43:42.610Z,100510.83
2018-06-08T00:46:10.665Z,100506.14
2018-06-08T00:48:38.657Z,100500.56
2018-06-08T00:51:06.673Z,100502.07
2018-06-08T00:53:34.705Z,100498.20
2018-06-08T00:56:02.705Z,100505.94
2018-06-08T00:58:30.709Z,100502.03
2018-06-08T01:00:58.724Z,100497.00
2018-06-08T01:03:26.753Z,100497.67
2018-06-08T01:05:54.799Z,100495.32
2018-06-08T01:08:22.801Z,100493.15
2018-06-08T01:10:50.800Z,100490.78
2018-06-08T01:13:18.818Z,100493.52
2018-06-08T01:15:46.866Z,100493.73
2018-06-08T01:18:14.868Z,100488.37
2018-06-08T01:20:42.862Z,100477.92
2018-06-08T01:23:11.105Z,100479.80
2018-06-08T01:25:39.125Z,100476.61
2018-06-08T01:28:07.324Z,100481.98
2018-06-08T01:30:35.341Z,100477.09
2018-06-08T01:33:03.353Z,100478.41
2018-06-08T01:35:31.328Z,100473.51
2018-06-08T01:37:59.312Z,100479.62
2018-06-08T01:40:27.434Z,100483.82
2018-06-08T01:42:55.426Z,100481.55
2018-06-08T01:45:23.412Z,100485.38
2018-06-08T01:47:51.442Z,100487.91
2018-06-08T01:50:19.468Z,100488.56
2018-06-08T01:52:47.499Z,100482.64
2018-06-08T01:55:15.495Z,100478.63
2018-06-08T01:57:43.486Z,100483.57
2018-06-08T02:00:11.515Z,100482.36
2018-06-08T02:02:39.545Z,100478.81
2018-06-08T02:05:07.555Z,100487.04
2018-06-08T02:07:35.560Z,100488.27
2018-06-08T02:10:03.589Z,100479.29
2018-06-08T02:12:31.632Z,100481.98
2018-06-08T02:14:59.626Z,100491.94
2018-06-08T02:17:27.700Z,100490.89
2018-06-08T02:19:55.717Z,100494.54
2018-06-08T02:22:23.756Z,100488.49
2018-06-08T02:24:52.391Z,100485.53
2018-06-08T02:27:20.430Z,100484.01
2018-06-08T02:29:48.526Z,100490.21
2018-06-08T02:32:16.547Z,100488.23
2018-06-08T02:34:44.528Z,100492.25
2018-06-08T02:37:12.653Z,100499.89
2018-06-08T02:39:40.682Z,100494.40
2018-06-08T02:42:08.688Z,100493.70
2018-06-08T02:44:36.725Z,100498.75
2018-06-08T02:47:04.725Z,100502.57
2018-06-08T02:49:32.744Z,100501.28
2018-06-08T02:52:00.732Z,100501.46
2018-06-08T02:54:28.756Z,100506.59
2018-06-08T02:56:56.801Z,100502.88
2018-06-08T02:59:24.796Z,100502.75
2018-06-08T03:01:52.804Z,100502.47
2018-06-08T03:04:20.809Z,100501.87
2018-06-08T03:06:48.869Z,100508.41
2018-06-08T03:09:16.868Z,100507.80
2018-06-08T03:11:45.015Z,100503.70
2018-06-08T03:14:13.033Z,100505.19
2018-06-08T03:16:41.089Z,100500.72
2018-06-08T03:19:09.101Z,100500.24
2018-06-08T03:21:37.080Z,100497.23
2018-06-08T03:24:05.067Z,100502.96
2018-06-08T03:26:33.056Z,100504.67
2018-06-08T03:29:01.122Z,100511.11
2018-06-08T03:31:29.163Z,100511.31
2018-06-08T03:33:57.173Z,100503.00
2018-06-08T03:36:25.280Z,100492.73
2018-06-08T03:38:53.280Z,100499.76
2018-06-08T03:41:21.310Z,100496.65
2018-06-08T03:43:49.344Z,100492.17
2018-06-08T03:46:17.363Z,100498.77
2018-06-08T03:48:45.364Z,100493.64
2018-06-08T03:51:14.068Z,100493.39
2018-06-08T03:53:42.381Z,100491.70
2018-06-08T03:56:10.401Z,100494.31
2018-06-08T03:58:38.404Z,100492.91
2018-06-08T04:01:06.554Z,100489.13
2018-06-08T04:03:34.545Z,100492.03
2018-06-08T04:06:02.565Z,100490.58
2018-06-08T04:08:30.590Z,100493.65
2018-06-08T04:10:58.572Z,100498.85
2018-06-08T04:13:26.585Z,100499.88
2018-06-08T04:15:54.572Z,100502.69
2018-06-08T04:18:22.593Z,100510.96
2018-06-08T04:20:50.665Z,100512.03
2018-06-08T04:23:18.673Z,100504.54
2018-06-08T04:25:46.717Z,100509.45
2018-06-08T04:28:14.692Z,100504.72
2018-06-08T04:30:42.697Z,100500.06
2018-06-08T04:33:10.717Z,100505.05
2018-06-08T04:35:38.729Z,100508.28
2018-06-08T04:38:06.725Z,100501.22
2018-06-08T04:40:34.712Z,100502.30
2018-06-08T04:43:02.734Z,100509.55
2018-06-08T04:45:30.763Z,100504.08
2018-06-08T04:47:58.791Z,100511.75
2018-06-08T04:50:26.798Z,100510.18
2018-06-08T04:52:54.793Z,100513.06
2018-06-08T04:55:22.765Z,100510.80
2018-06-08T04:57:50.764Z,100506.45
2018-06-08T05:00:18.773Z,100513.00
2018-06-08T05:02:46.855Z,100510.83
2018-06-08T05:05:14.866Z,100517.56
2018-06-08T05:07:42.847Z,100521.41
2018-06-08T05:10:10.841Z,100516.16
2018-06-08T05:12:38.889Z,100526.82
2018-06-08T05:15:06.926Z,100528.52
2018-06-08T05:17:34.903Z,100532.41
2018-06-08T05:20:02.923Z,100529.16
2018-06-08T05:22:30.955Z,100524.59
2018-06-08T05:24:58.987Z,100525.39
2018-06-08T05:27:26.982Z,100527.44
2018-06-08T05:29:54.992Z,100533.16
2018-06-08T05:32:22.984Z,100540.78
2018-06-08T05:34:50.973Z,100542.89
2018-06-08T05:37:19.047Z,100553.34
2018-06-08T05:39:47.033Z,100556.83
2018-06-08T05:42:15.057Z,100555.99
2018-06-08T05:44:43.075Z,100556.09
2018-06-08T05:47:11.069Z,100556.05
2018-06-08T05:49:39.121Z,100557.97
2018-06-08T05:52:07.144Z,100558.05
2018-06-08T05:54:35.185Z,100563.38
2018-06-08T05:57:03.196Z,100568.31
2018-06-08T05:59:31.232Z,100565.17
2018-06-08T06:01:59.221Z,100570.87
2018-06-08T06:04:27.236Z,100571.48
2018-06-08T06:06:55.256Z,100580.14
2018-06-08T06:09:23.341Z,100582.79
2018-06-08T06:11:51.336Z,100586.44
2018-06-08T06:14:19.365Z,100592.42
2018-06-08T06:16:47.398Z,100593.09
2018-06-08T06:19:15.403Z,100592.52
2018-06-08T06:21:43.466Z,100597.95
2018-06-08T06:24:11.480Z,100601.06
2018-06-08T06:26:39.467Z,100606.94
2018-06-08T06:29:07.453Z,100605.02
2018-06-08T06:31:35.492Z,100607.39
2018-06-08T06:34:03.489Z,100600.88
2018-06-08T06:36:32.049Z,100601.62
2018-06-08T06:39:00.105Z,100600.04
2018-06-08T06:41:28.101Z,100600.20
2018-06-08T06:43:57.132Z,100613.06
2018-06-08T06:46:25.121Z,100605.73
2018-06-08T06:48:53.137Z,100610.53
2018-06-08T06:51:21.224Z,100608.56
2018-06-08T06:53:49.160Z,100605.89
2018-06-08T06:56:17.165Z,100610.91
2018-06-08T06:58:45.159Z,100604.06
2018-06-08T07:01:13.212Z,100607.78
2018-06-08T07:03:42.145Z,100601.53
2018-06-08T07:06:10.150Z,100609.02
2018-06-08T07:08:38.256Z,100602.62
2018-06-08T07:11:06.264Z,100596.84
2018-06-08T07:13:34.296Z,100590.79
2018-06-08T07:16:02.336Z,100590.83
2018-06-08T07:18:30.366Z,100593.65
2018-06-08T07:20:58.372Z,100593.68
2018-06-08T07:23:26.369Z,100597.81
2018-06-08T07:25:54.462Z,100592.75
2018-06-08T07:28:22.553Z,100595.83
2018-06-08T07:30:50.569Z,100595.95
2018-06-08T07:33:18.588Z,100595.88
2018-06-08T07:35:46.640Z,100598.11
2018-06-08T07:38:14.625Z,100593.71
2018-06-08T07:40:42.764Z,100596.98
2018-06-08T07:43:10.857Z,100591.77
2018-06-08T07:45:38.893Z,100587.67
2018-06-08T07:48:07.136Z,100587.02
2018-06-08T07:50:35.258Z,100583.43
2018-06-08T07:53:03.281Z,100585.67
2018-06-08T07:55:31.319Z,100584.68
2018-06-08T07:57:59.325Z,100585.22
2018-06-08T08:00:27.297Z,100576.05
2018-06-08T08:02:55.304Z,100578.61
2018-06-08T08:05:23.360Z,100579.95
2018-06-08T08:07:51.392Z,100575.73
2018-06-08T08:10:19.425Z,100573.47
2018-06-08T08:12:47.454Z,100572.10
2018-06-08T08:15:15.485Z,100565.34
2018-06-08T08:17:43.488Z,100562.02
2018-06-08T08:20:11.505Z,100564.70
2018-06-08T08:22:39.489Z,100568.56
2018-06-08T08:25:07.579Z,100566.46
2018-06-08T08:27:35.576Z,100565.59
2018-06-08T08:30:04.849Z,100565.83
2018-06-08T08:32:32.876Z,100567.33
2018-06-08T08:35:00.913Z,100565.63
2018-06-08T08:37:28.943Z,100561.84
2018-06-08T08:39:56.957Z,100563.33
2018-06-08T08:42:25.003Z,100569.89
2018-06-08T08:44:53.033Z,100563.81
2018-06-08T08:47:21.042Z,100569.33
2018-06-08T08:49:49.064Z,100568.16
2018-06-08T08:52:17.110Z,100564.19
2018-06-08T08:54:45.160Z,100567.33
2018-06-08T08:57:14.197Z,100560.73
2018-06-08T08:59:42.216Z,100565.66
2018-06-08T09:02:10.253Z,100564.70
2018-06-08T09:04:38.256Z,100568.81
2018-06-08T09:07:06.298Z,100568.30
2018-06-08T09:09:34.324Z,100566.39
2018-06-08T09:12:02.374Z,100566.27
2018-06-08T09:14:30.396Z,100572.32
2018-06-08T09:16:58.420Z,100570.22
2018-06-08T09:19:26.413Z,100576.31
2018-06-08T09:21:54.430Z,100572.48
2018-06-08T09:24:22.444Z,100574.06
2018-06-08T09:26:50.445Z,100572.66
2018-06-08T09:29:18.453Z,100571.94
2018-06-08T09:31:46.424Z,100577.61
2018-06-08T09:34:14.518Z,100574.53
2018-06-08T09:36:42.539Z,100574.84
2018-06-08T09:39:10.512Z,100577.41
2018-06-08T09:41:38.547Z,100576.09
2018-06-08T09:44:06.513Z,100567.53
2018-06-08T09:46:34.497Z,100567.11
2018-06-08T09:49:02.496Z,100570.92
2018-06-08T09:51:30.551Z,100562.64
2018-06-08T09:53:58.570Z,100565.08
2018-06-08T09:56:26.576Z,100566.16
2018-06-08T09:58:54.591Z,100567.76
2018-06-08T10:01:22.596Z,100565.27
2018-06-08T10:03:50.615Z,100564.30
2018-06-08T10:06:18.621Z,100568.47
2018-06-08T10:08:46.666Z,100563.09
2018-06-08T10:11:14.672Z,100563.11
2018-06-08T10:13:43.916Z,100557.02
2018-06-08T10:16:11.978Z,100552.61
2018-06-08T10:18:39.940Z,100554.25
2018-06-08T10:21:07.963Z,100551.51
2018-06-08T10:23:36.045Z,100552.85
2018-06-08T10:26:04.090Z,100557.85
2018-06-08T10:28:32.074Z,100552.63
2018-06-08T10:31:00.152Z,100547.66
2018-06-08T10:33:28.201Z,100550.34
2018-06-08T10:35:56.235Z,100550.05
2018-06-08T10:38:24.273Z,100543.91
2018-06-08T10:40:52.257Z,100544.50
2018-06-08T10:43:20.248Z,100543.99
2018-06-08T10:45:48.234Z,100540.92
2018-06-08T10:48:16.224Z,100546.41
2018-06-08T10:50:44.221Z,100542.70
2018-06-08T10:53:12.213Z,100542.68
2018-06-08T10:55:40.202Z,100543.54
2018-06-08T10:58:08.214Z,100544.34
2018-06-08T11:00:36.186Z,100544.06
2018-06-08T11:03:04.184Z,100538.00
2018-06-08T11:05:32.196Z,100548.69
2018-06-08T11:08:00.233Z,100535.28
2018-06-08T11:10:28.224Z,100528.11
2018-06-08T11:12:56.248Z,100526.72
2018-06-08T11:15:24.258Z,100532.23
2018-06-08T11:17:52.232Z,100530.64
2018-06-08T11:20:20.296Z,100526.50
2018-06-08T11:22:48.285Z,100528.03
2018-06-08T11:25:16.292Z,100531.31
2018-06-08T11:27:44.313Z,100528.14
2018-06-08T11:30:12.293Z,100522.63
2018-06-08T11:32:40.349Z,100521.90
2018-06-08T11:35:08.356Z,100513.66
2018-06-08T11:37:36.338Z,100513.86
2018-06-08T11:40:04.396Z,100508.20
2018-06-08T11:42:32.416Z,100501.06
2018-06-08T11:45:00.460Z,100500.80
2018-06-08T11:47:29.066Z,100498.02
2018-06-08T11:49:57.108Z,100495.03
2018-06-08T11:52:25.150Z,100497.53
2018-06-08T11:54:53.927Z,100495.85
2018-06-08T11:57:22.100Z,100492.52
2018-06-08T11:59:50.128Z,100492.54
2018-06-08T12:02:18.153Z,100490.05
2018-06-08T12:04:46.142Z,100487.49
2018-06-08T12:07:14.304Z,100490.81
2018-06-08T12:09:42.899Z,100478.17
2018-06-08T12:12:11.154Z,100467.45
2018-06-08T12:14:39.189Z,100458.66
2018-06-08T12:17:07.219Z,100468.54
2018-06-08T12:19:35.262Z,100464.31
2018-06-08T12:22:03.256Z,100460.11
2018-06-08T12:24:31.373Z,100459.84
2018-06-08T12:26:59.413Z,100448.45
2018-06-08T12:29:27.554Z,100450.10
2018-06-08T12:31:55.554Z,100445.94
2018-06-08T12:34:23.593Z,100452.24
2018-06-08T12:36:51.603Z,100451.31
2018-06-08T12:39:20.628Z,100448.92
2018-06-08T12:41:48.655Z,100447.86
2018-06-08T12:44:16.706Z,100443.69
2018-06-08T12:46:44.685Z,100450.68
2018-06-08T12:49:12.708Z,100446.85
2018-06-08T12:51:40.705Z,100450.53
2018-06-08T12:54:08.741Z,100454.31
2018-06-08T12:56:36.765Z,100448.47
2018-06-08T12:59:05.166Z,100452.21
2018-06-08T13:01:33.160Z,100451.74
2018-06-08T13:04:01.176Z,100449.41
2018-06-08T13:06:29.144Z,100449.67
2018-06-08T13:08:57.206Z,100440.48
2018-06-08T13:11:25.236Z,100440.59
2018-06-08T13:13:53.261Z,100442.08
2018-06-08T13:16:21.247Z,100438.44
2018-06-08T13:18:49.244Z,100436.45
2018-06-08T13:21:17.291Z,100436.38
2018-06-08T13:23:45.289Z,100440.77
2018-06-08T13:26:13.325Z,100435.83
2018-06-08T13:28:41.361Z,100437.83
2018-06-08T13:31:09.382Z,100437.61
2018-06-08T13:33:37.401Z,100439.23
2018-06-08T13:36:05.411Z,100430.28
2018-06-08T13:38:33.414Z,100430.16
2018-06-08T13:41:01.425Z,100439.30
2018-06-08T13:43:29.483Z,100439.46
2018-06-08T13:45:57.471Z,100429.65
2018-06-08T13:48:25.500Z,100441.27
2018-06-08T13:50:53.520Z,100439.73
2018-06-08T13:53:21.577Z,100435.84
2018-06-08T13:55:49.668Z,100448.19
2018-06-08T13:58:17.734Z,100436.85
2018-06-08T14:00:45.758Z,100437.09
2018-06-08T14:03:13.794Z,100431.00
2018-06-08T14:05:41.772Z,100429.73
2018-06-08T14:08:09.776Z,100412.86
2018-06-08T14:10:37.823Z,100430.33
2018-06-08T14:13:06.165Z,100427.63
2018-06-08T14:15:34.164Z,100423.98
2018-06-08T14:18:02.180Z,100417.17
2018-06-08T14:20:30.250Z,100423.86
2018-06-08T14:22:58.256Z,100423.73
2018-06-08T14:25:26.305Z,100425.38
2018-06-08T14:27:54.463Z,100424.11
2018-06-08T14:30:22.474Z,100429.54
2018-06-08T14:32:50.463Z,100428.25
2018-06-08T14:35:18.464Z,100429.90
2018-06-08T14:37:46.464Z,100429.12
2018-06-08T14:40:14.473Z,100423.34
2018-06-08T14:42:42.464Z,100421.00
2018-06-08T14:45:10.505Z,100411.38
2018-06-08T14:47:38.626Z,100416.89
2018-06-08T14:50:06.617Z,100416.63
2018-06-08T14:52:34.650Z,100411.30
2018-06-08T14:55:02.669Z,100413.13
2018-06-08T14:57:31.327Z,100412.78
2018-06-08T14:59:59.740Z,100405.38
2018-06-08T15:02:27.912Z,100406.40
2018-06-08T15:04:56.421Z,100397.63
2018-06-08T15:07:24.430Z,100402.09
2018-06-08T15:09:52.481Z,100396.22
2018-06-08T15:12:20.688Z,100393.52
2018-06-08T15:14:48.780Z,100384.80
2018-06-08T15:17:17.344Z,100388.02
2018-06-08T15:19:45.352Z,100390.06
2018-06-08T15:22:13.563Z,100386.78
2018-06-08T15:24:41.661Z,100389.97
2018-06-08T15:27:09.821Z,100398.99
2018-06-08T15:29:37.880Z,100409.30
2018-06-08T15:32:06.060Z,100407.16
2018-06-08T15:34:34.114Z,100406.09
2018-06-08T15:37:02.103Z,100408.45
2018-06-08T15:39:30.232Z,100413.52
2018-06-08T15:41:58.304Z,100405.62
2018-06-08T15:44:27.140Z,100405.33
2018-06-08T15:46:55.153Z,100405.78
2018-06-08T15:49:23.144Z,100402.23
2018-06-08T15:51:51.129Z,100400.44
2018-06-08T15:54:19.148Z,100397.25
2018-06-08T15:56:47.293Z,100402.00
2018-06-08T15:59:15.320Z,100393.45
2018-06-08T16:01:43.341Z,100395.05
2018-06-08T16:04:12.407Z,100395.70
2018-06-08T16:06:40.601Z,100395.23
2018-06-08T16:09:08.662Z,100395.84
2018-06-08T16:11:36.697Z,100387.69
2018-06-08T16:14:04.857Z,100386.47
2018-06-08T16:16:32.905Z,100386.39
2018-06-08T16:19:00.919Z,100388.58
2018-06-08T16:21:28.999Z,100384.20
2018-06-08T16:23:57.004Z,100397.78
2018-06-08T16:26:25.034Z,100389.19
2018-06-08T16:28:53.053Z,100386.59
2018-06-08T16:31:21.057Z,100384.05
2018-06-08T16:33:49.109Z,100384.38
2018-06-08T16:36:17.158Z,100382.19
2018-06-08T16:38:45.180Z,100381.92
2018-06-08T16:41:13.193Z,100381.73
2018-06-08T16:43:41.176Z,100381.99
2018-06-08T16:46:09.197Z,100378.45
2018-06-08T16:48:37.332Z,100380.64
2018-06-08T16:51:05.677Z,100379.69
2018-06-08T16:53:33.789Z,100378.94
2018-06-08T16:56:01.867Z,100376.21
2018-06-08T16:58:29.892Z,100373.34
2018-06-08T17:00:57.912Z,100374.03
2018-06-08T17:03:25.916Z,100375.25
2018-06-08T17:05:53.942Z,100368.87
2018-06-08T17:08:21.978Z,100374.72
2018-06-08T17:10:50.060Z,100373.74
2018-06-08T17:13:18.114Z,100371.38
2018-06-08T17:15:46.124Z,100374.34
2018-06-08T17:18:15.156Z,100371.08
2018-06-08T17:20:43.242Z,100376.45
2018-06-08T17:23:11.437Z,100386.27
2018-06-08T17:25:39.472Z,100378.03
2018-06-08T17:28:07.466Z,100383.73
2018-06-08T17:30:35.453Z,100383.23
2018-06-08T17:33:03.485Z,100390.78
2018-06-08T17:35:31.560Z,100392.41
2018-06-08T17:37:59.577Z,100394.41
2018-06-08T17:40:27.596Z,100393.50
2018-06-08T17:42:55.650Z,100394.62
2018-06-08T17:45:23.641Z,100398.36
2018-06-08T17:47:51.633Z,100398.20
2018-06-08T17:50:19.678Z,100396.84
2018-06-08T17:52:47.852Z,100394.44
2018-06-08T17:55:15.980Z,100400.84
2018-06-08T17:57:44.217Z,100397.58
2018-06-08T18:00:12.729Z,100408.30
2018-06-08T18:02:40.790Z,100408.17
2018-06-08T18:05:08.858Z,100411.38
2018-06-08T18:07:36.904Z,100414.17
2018-06-08T18:10:05.160Z,100414.12
2018-06-08T18:12:33.317Z,100414.92
2018-06-08T18:15:01.537Z,100410.73
2018-06-08T18:17:29.557Z,100415.57
2018-06-08T18:19:57.632Z,100413.43
2018-06-08T18:22:25.973Z,100415.98
2018-06-08T18:24:54.065Z,100427.88
2018-06-08T18:27:22.388Z,100424.11
2018-06-08T18:29:50.959Z,100423.93
2018-06-08T18:32:19.126Z,100421.98
2018-06-08T18:34:47.137Z,100420.75
2018-06-08T18:37:15.150Z,100419.14
2018-06-08T18:39:43.190Z,100416.68
2018-06-08T18:42:11.274Z,100415.85
2018-06-08T18:44:39.337Z,100420.11
2018-06-08T18:47:08.101Z,100420.77
2018-06-08T18:49:36.176Z,100420.55
2018-06-08T18:52:04.241Z,100426.02
2018-06-08T18:54:32.257Z,100417.59
2018-06-08T18:57:00.269Z,100425.67
2018-06-08T18:59:28.379Z,100428.42
2018-06-08T19:01:56.373Z,100429.84
2018-06-08T19:04:24.599Z,100426.28
2018-06-08T19:06:52.876Z,100424.42
2018-06-08T19:09:20.912Z,100430.16
2018-06-08T19:11:48.992Z,100429.72
2018-06-08T19:14:17.341Z,100426.50
2018-06-08T19:16:45.558Z,100429.12
2018-06-08T19:19:13.741Z,100423.87
2018-06-08T19:21:41.812Z,100434.45
2018-06-08T19:24:10.348Z,100426.94
2018-06-08T19:26:38.526Z,100432.52
2018-06-08T19:29:06.796Z,100435.94
2018-06-08T19:31:35.093Z,100438.57
2018-06-08T19:34:03.187Z,100433.42
2018-06-08T19:36:31.380Z,100432.90
2018-06-08T19:38:59.602Z,100436.05
2018-06-08T19:41:27.711Z,100431.84
2018-06-08T19:43:55.927Z,100432.73
2018-06-08T19:46:24.021Z,100431.14
2018-06-08T19:48:52.333Z,100432.91
2018-06-08T19:51:20.420Z,100437.44
2018-06-08T19:53:48.491Z,100434.70
2018-06-08T19:56:16.802Z,100433.59
2018-06-08T19:58:44.981Z,100430.71
2018-06-08T20:01:13.145Z,100435.10
2018-06-08T20:03:41.248Z,100439.67
2018-06-08T20:06:09.431Z,100441.46
2018-06-08T20:08:37.452Z,100445.73
2018-06-08T20:11:05.447Z,100446.04
2018-06-08T20:13:33.509Z,100448.67
2018-06-08T20:16:01.530Z,100448.74
2018-06-08T20:18:29.559Z,100452.98
2018-06-08T20:20:57.612Z,100453.81
2018-06-08T20:23:25.673Z,100456.41
2018-06-08T20:25:53.669Z,100460.72
2018-06-08T20:28:21.701Z,100457.23
2018-06-08T20:30:49.720Z,100458.16
2018-06-08T20:33:17.741Z,100457.05
2018-06-08T20:35:45.729Z,100456.05
2018-06-08T20:38:13.761Z,100458.77
2018-06-08T20:40:41.826Z,100460.28
2018-06-08T20:43:09.911Z,100459.06
2018-06-08T20:45:37.941Z,100453.85
2018-06-08T20:48:05.929Z,100455.13
2018-06-08T20:50:34.011Z,100448.63
2018-06-08T20:53:02.041Z,100449.91
2018-06-08T20:55:30.128Z,100453.52
2018-06-08T20:58:00.905Z,100455.01
2018-06-08T21:00:28.942Z,100451.78
2018-06-08T21:02:56.913Z,100455.04
2018-06-08T21:05:24.929Z,100462.10
2018-06-08T21:07:52.932Z,100465.28
2018-06-08T21:10:20.976Z,100459.78
2018-06-08T21:12:48.996Z,100460.27
2018-06-08T21:15:17.105Z,100459.47
2018-06-08T21:17:46.143Z,100463.66
2018-06-08T21:20:14.177Z,100459.25
2018-06-08T21:22:42.180Z,100464.76
2018-06-08T21:25:10.200Z,100467.19
2018-06-08T21:27:39.096Z,100470.27
2018-06-08T21:30:07.126Z,100465.33
2018-06-08T21:32:35.159Z,100471.58
2018-06-08T21:35:03.220Z,100472.75
2018-06-08T21:37:31.234Z,100473.59
2018-06-08T21:39:59.312Z,100480.69
2018-06-08T21:42:27.313Z,100479.05
2018-06-08T21:44:55.500Z,100474.52
2018-06-08T21:47:23.621Z,100483.04
2018-06-08T21:49:51.625Z,100474.66
2018-06-08T21:52:20.136Z,100466.66
2018-06-08T21:54:48.302Z,100465.91
2018-06-08T21:57:16.461Z,100464.03
2018-06-08T21:59:44.497Z,100466.94
2018-06-08T22:02:12.563Z,100472.33
2018-06-08T22:04:40.596Z,100470.11
2018-06-08T22:07:08.890Z,100470.84
2018-06-08T22:09:36.893Z,100472.77
2018-06-08T22:12:05.043Z,100470.30
2018-06-08T22:14:33.077Z,100467.37
2018-06-08T22:17:01.115Z,100461.63
2018-06-08T22:19:29.109Z,100467.39
2018-06-08T22:21:57.108Z,100465.07
2018-06-08T22:24:25.113Z,100466.78
2018-06-08T22:26:58.796Z,100460.72
2018-06-08T22:29:27.812Z,100456.39
2018-06-08T22:31:55.823Z,100451.16
2018-06-08T22:34:29.649Z,100449.34
2018-06-08T22:36:57.650Z,100445.61
2018-06-08T22:39:25.736Z,100446.94
2018-06-08T22:41:53.784Z,100448.33
2018-06-08T22:44:21.951Z,100449.97
2018-06-08T22:46:49.965Z,100443.13
2018-06-08T22:49:18.091Z,100443.38
2018-06-08T22:51:46.108Z,100445.69
2018-06-08T22:54:14.182Z,100446.53
2018-06-08T22:56:42.187Z,100442.11
2018-06-08T22:59:10.192Z,100442.86
2018-06-08T23:01:38.204Z,100436.17
2018-06-08T23:04:06.214Z,100443.84
2018-06-08T23:06:34.269Z,100438.89
2018-06-08T23:09:02.395Z,100441.11
2018-06-08T23:11:30.400Z,100441.69
2018-06-08T23:13:58.412Z,100436.47
2018-06-08T23:16:26.450Z,100437.81
2018-06-08T23:18:54.479Z,100431.82
2018-06-08T23:21:22.545Z,100428.56
2018-06-08T23:23:50.689Z,100430.98
2018-06-08T23:26:18.730Z,100421.63
2018-06-08T23:28:46.746Z,100427.95
2018-06-08T23:31:14.756Z,100421.83
2018-06-08T23:33:42.814Z,100426.25
2018-06-08T23:36:10.851Z,100429.03
2018-06-08T23:38:38.869Z,100424.84
2018-06-08T23:41:06.919Z,100424.95
2018-06-08T23:43:35.025Z,100426.60
2018-06-08T23:46:03.052Z,100417.70
2018-06-08T23:48:31.034Z,100417.80
2018-06-08T23:50:59.132Z,100412.23
2018-06-08T23:53:27.134Z,100409.68
2018-06-08T23:55:55.291Z,100412.67
2018-06-08T23:58:24.382Z,100410.21
